»·PEaware :: N618ER KFLG-KSNA

N618ER :: KFLG-KSNA

FLIGHT INFORMATION

Flight Status: Arrived
Operator: Privately registered:
United States
More flights under this callsign
Pilot: Ryan E. (25987)
Aircraft: SOCATA TBM-900
(TBM9)
More flights by this aircraft type
Origin: KFLG Flagstaff Pulliam
United States
Destination: KSNA John Wayne-Orange Co
United States
More flights between these airports :: More routes between these airports
Route: +FLG1 OATES HIMDU DSNEE4
File this flight plan on PilotEdge
Remarks:
Altitude:
(Current/Filed)
24,000ft
Speed:
(Current/Filed)
250kts
Departed: 09-Oct-19 11:33 AM
Arrived: 09-Oct-19 01:03 PM
Distance/Time
Traveled:
319nm/1:30
Distance/Time
To Go:
Arrived

Flight Plot

Page will automatically refresh every two minutes.


Map Options




Map Legend


Flown Route
Filed Route
Departure Airport
Arrival Airport
Navaid (VOR, NDB)
Fix

Horizontal Profiles

Position Reports

Time Latitude Longitude Heading Altitude Ground
Speed
09-Oct-19 11:12 35.139427 -111.676037 248 7014ft 0kts
09-Oct-19 11:13 35.139428 -111.676037 248 7014ft 0kts
09-Oct-19 11:14 35.139428 -111.676037 248 7014ft 0kts
09-Oct-19 11:15 35.139428 -111.676037 248 7014ft 0kts
09-Oct-19 11:16 35.139428 -111.676037 248 7014ft 0kts
09-Oct-19 11:17 35.139428 -111.676037 248 7014ft 0kts
09-Oct-19 11:18 35.139428 -111.676037 248 7014ft 0kts
09-Oct-19 11:19 35.139428 -111.676037 248 7014ft 0kts
09-Oct-19 11:20 35.139428 -111.676037 248 7014ft 0kts
09-Oct-19 11:21 35.139428 -111.676037 248 7014ft 0kts
09-Oct-19 11:22 35.139427 -111.676037 248 7014ft 0kts
09-Oct-19 11:23 35.139427 -111.676037 248 7014ft 0kts
09-Oct-19 11:24 35.139428 -111.676037 248 7014ft 0kts
09-Oct-19 11:25 35.139427 -111.676037 248 7014ft 0kts
09-Oct-19 11:26 35.137931 -111.674431 134 7014ft 12kts
09-Oct-19 11:27 35.141324 -111.669948 41 7014ft 21kts
09-Oct-19 11:28 35.146458 -111.664476 40 7014ft 24kts
09-Oct-19 11:29 35.149833 -111.660436 123 7014ft 0kts
09-Oct-19 11:30 35.149833 -111.660436 123 7014ft 0kts
09-Oct-19 11:31 35.149833 -111.660436 123 7014ft 0kts
09-Oct-19 11:32 35.147116 -111.661994 220 7014ft 79kts
09-Oct-19 11:33 35.116944 -111.675097 160 8276ft 165kts
09-Oct-19 11:34 35.068791 -111.671308 192 9995ft 186kts
09-Oct-19 11:35 35.017955 -111.680569 196 11956ft 187kts
09-Oct-19 11:36 34.964731 -111.692877 198 13133ft 212kts
09-Oct-19 11:37 34.910320 -111.704250 194 14977ft 197kts
09-Oct-19 11:38 34.867769 -111.726995 252 16020ft 164kts
09-Oct-19 11:39 34.857731 -111.773946 257 17871ft 135kts
09-Oct-19 11:40 34.848893 -111.819488 257 19812ft 144kts
09-Oct-19 11:41 34.839712 -111.866794 258 21725ft 144kts
09-Oct-19 11:42 34.830533 -111.914036 258 23633ft 144kts
09-Oct-19 11:43 34.820025 -111.967929 257 24129ft 190kts
09-Oct-19 11:44 34.805937 -112.039731 257 24108ft 234kts
09-Oct-19 11:45 34.790267 -112.119649 257 24103ft 248kts
09-Oct-19 11:46 34.774041 -112.202142 257 24099ft 252kts
09-Oct-19 11:47 34.757619 -112.285299 257 24098ft 252kts
09-Oct-19 11:48 34.741177 -112.368210 257 24096ft 253kts
09-Oct-19 11:49 34.724573 -112.451618 257 24096ft 253kts
09-Oct-19 11:50 34.707974 -112.534654 257 24097ft 253kts
09-Oct-19 11:51 34.691336 -112.617598 257 24095ft 253kts
09-Oct-19 11:52 34.674537 -112.701040 257 24104ft 254kts
09-Oct-19 11:53 34.657689 -112.784389 257 24102ft 254kts
09-Oct-19 11:54 34.640678 -112.868219 257 24062ft 255kts
09-Oct-19 11:55 34.623621 -112.951948 257 24002ft 256kts
09-Oct-19 11:56 34.606486 -113.035756 257 23946ft 255kts
09-Oct-19 11:57 34.589340 -113.119312 257 23934ft 254kts
09-Oct-19 11:58 34.572167 -113.202685 257 23934ft 254kts
09-Oct-19 11:59 34.554999 -113.285712 257 23933ft 254kts
09-Oct-19 12:00 34.537680 -113.369167 257 23933ft 254kts
09-Oct-19 12:01 34.520319 -113.452516 257 23931ft 254kts
09-Oct-19 12:02 34.502927 -113.535706 257 23930ft 254kts
09-Oct-19 12:03 34.485517 -113.618680 257 23930ft 254kts
09-Oct-19 12:04 34.467978 -113.701967 257 23939ft 254kts
09-Oct-19 12:05 34.450445 -113.784928 257 23938ft 254kts
09-Oct-19 12:06 34.432821 -113.868019 257 23937ft 254kts
09-Oct-19 12:07 34.415105 -113.951240 257 23936ft 254kts
09-Oct-19 12:08 34.397332 -114.034073 257 23922ft 255kts
09-Oct-19 12:09 34.379170 -114.117490 257 23870ft 256kts
09-Oct-19 12:10 34.360936 -114.200921 257 23821ft 256kts
09-Oct-19 12:11 34.342669 -114.284185 257 23786ft 254kts
09-Oct-19 12:12 34.324611 -114.366922 257 23786ft 255kts
09-Oct-19 12:13 34.306452 -114.450119 257 23783ft 255kts
09-Oct-19 12:14 34.288266 -114.533138 257 23784ft 255kts
09-Oct-19 12:15 34.270044 -114.616052 257 23784ft 255kts
09-Oct-19 12:16 34.252163 -114.696850 256 23157ft 254kts
09-Oct-19 12:17 34.232356 -114.783746 256 21991ft 276kts
09-Oct-19 12:18 34.211832 -114.873377 256 20884ft 275kts
09-Oct-19 12:19 34.191459 -114.962367 256 19790ft 275kts
09-Oct-19 12:20 34.171503 -115.052056 256 18716ft 277kts
09-Oct-19 12:21 34.151850 -115.140148 256 18046ft 266kts
09-Oct-19 12:22 34.132666 -115.225816 256 17622ft 259kts
09-Oct-19 12:23 34.113850 -115.309598 256 17308ft 259kts
09-Oct-19 12:24 34.094994 -115.393201 256 17045ft 256kts
09-Oct-19 12:25 34.076324 -115.475723 256 17042ft 253kts
09-Oct-19 12:26 34.057731 -115.557637 256 17042ft 253kts
09-Oct-19 12:27 34.044521 -115.640399 262 17042ft 252kts
09-Oct-19 12:28 34.032871 -115.723756 261 17048ft 252kts
09-Oct-19 12:29 34.021155 -115.807227 261 17047ft 253kts
09-Oct-19 12:30 34.009712 -115.888221 262 17013ft 213kts
09-Oct-19 12:31 34.000630 -115.952491 262 16843ft 193kts
09-Oct-19 12:32 33.991074 -116.019732 261 15968ft 213kts
09-Oct-19 12:33 33.980740 -116.091980 261 14898ft 221kts
09-Oct-19 12:34 33.970210 -116.165279 261 13902ft 222kts
09-Oct-19 12:35 33.960499 -116.237761 262 13520ft 215kts
09-Oct-19 12:36 33.951105 -116.313447 262 13053ft 239kts
09-Oct-19 12:37 33.941049 -116.394858 262 13046ft 248kts
09-Oct-19 12:38 33.930840 -116.477330 262 13045ft 249kts
09-Oct-19 12:39 33.920518 -116.559821 262 13043ft 249kts
09-Oct-19 12:40 33.909926 -116.642110 262 13025ft 245kts
09-Oct-19 12:41 33.899299 -116.724163 262 12340ft 250kts
09-Oct-19 12:42 33.889525 -116.807755 263 11546ft 252kts
09-Oct-19 12:43 33.880380 -116.891498 263 10729ft 254kts
09-Oct-19 12:45 33.871070 -116.976122 263 8794ft 227kts
09-Oct-19 12:46 33.863298 -117.046556 263 8984ft 220kts
09-Oct-19 12:47 33.854996 -117.121224 263 9500ft 236kts
09-Oct-19 12:48 33.846015 -117.201341 263 9499ft 243kts
09-Oct-19 12:49 33.836907 -117.282377 263 8890ft 242kts
09-Oct-19 12:50 33.827792 -117.362917 262 7997ft 240kts
09-Oct-19 12:51 33.818777 -117.442079 262 7999ft 239kts
09-Oct-19 12:52 33.796221 -117.518015 265 7960ft 241kts
09-Oct-19 12:53 33.796195 -117.595165 271 7192ft 216kts
09-Oct-19 12:54 33.797779 -117.663116 271 5979ft 186kts
09-Oct-19 12:55 33.815750 -117.727783 300 5040ft 224kts
09-Oct-19 12:56 33.848029 -117.792928 284 3833ft 227kts
09-Oct-19 12:57 33.824078 -117.850615 184 2848ft 188kts
09-Oct-19 12:58 33.779098 -117.837162 167 1667ft 97kts
09-Oct-19 12:59 33.746669 -117.834616 180 1390ft 117kts
09-Oct-19 13:00 33.719241 -117.842512 203 1071ft 85kts
09-Oct-19 13:01 33.698281 -117.854636 206 526ft 80kts
09-Oct-19 13:02 33.678978 -117.866798 204 59ft 42kts
09-Oct-19 13:03 33.674350 -117.871002 309 59ft 0kts
09-Oct-19 13:04 33.674353 -117.871007 311 59ft 1kts
09-Oct-19 13:05 33.675102 -117.871857 307 59ft 0kts
09-Oct-19 13:06 33.675102 -117.871857 307 59ft 0kts

Navigation Log

Ident Type
Flight plan parsing failed, navigation log unavailable